Time;durP1;ratioP1;P1;durP2;ratioP2;P2;SDS_P1;SDS_P2;PMS_P1;PMS_P2;Temp;Humidity;BMP_temperature;BMP_pressure;BME280_temperature;BME280_humidity;BME280_pressure;Samples;Min_cycle;Max_cycle;Signal;HPM_P1;HPM_P2
2021/01/29 00:00:25;;;;;;;3.45;1.52;;;;;;;;;;5045834;28;20365;-81
2021/01/29 00:03:15;;;;;;;5.18;1.20;;;;;;;;;;5043889;28;20021;-80
2021/01/29 00:06:04;;;;;;;3.75;1.17;;;;;;;;;;5047492;28;20017;-80
2021/01/29 00:08:49;;;;;;;2.65;1.10;;;;;;;;;;5049663;28;20159;-80
2021/01/29 00:11:34;;;;;;;2.95;1.33;;;;;;;;;;5045657;28;20021;-80
2021/01/29 00:14:20;;;;;;;3.83;1.30;;;;;;;;;;5051345;28;20024;-80
2021/01/29 00:17:05;;;;;;;6.05;1.45;;;;;;;;;;5043584;28;20021;-80
2021/01/29 00:19:51;;;;;;;2.88;1.40;;;;;;;;;;5043749;28;20107;-81
2021/01/29 00:22:36;;;;;;;5.10;1.70;;;;;;;;;;5063758;28;20020;-80
2021/01/29 00:25:23;;;;;;;4.15;1.58;;;;;;;;;;5041968;28;20055;-81
2021/01/29 00:28:08;;;;;;;2.65;1.50;;;;;;;;;;5038329;28;20241;-80
2021/01/29 00:30:54;;;;;;;1.30;1.10;;;;;;;;;;5046751;28;20364;-80
2021/01/29 00:33:39;;;;;;;3.88;1.25;;;;;;;;;;5060151;28;20028;-79
2021/01/29 00:36:25;;;;;;;5.70;1.42;;;;;;;;;;5043640;28;20020;-80
2021/01/29 00:39:10;;;;;;;2.47;1.00;;;;;;;;;;5046921;28;20033;-80
2021/01/29 00:41:55;;;;;;;2.45;1.40;;;;;;;;;;5041643;28;20025;-80
2021/01/29 00:44:40;;;;;;;3.05;1.20;;;;;;;;;;5049611;28;20055;-80
2021/01/29 00:47:25;;;;;;;2.20;1.15;;;;;;;;;;5059275;28;20115;-81
2021/01/29 00:50:11;;;;;;;3.17;0.90;;;;;;;;;;5046692;28;20053;-81
2021/01/29 00:52:56;;;;;;;2.38;0.90;;;;;;;;;;5063626;28;20049;-80
2021/01/29 00:55:41;;;;;;;2.45;1.33;;;;;;;;;;5041743;28;20383;-81
2021/01/29 00:58:27;;;;;;;2.60;0.95;;;;;;;;;;5055667;28;20502;-80
2021/01/29 01:01:13;;;;;;;5.00;2.70;;;;;;;;;;5049008;28;20039;-81
2021/01/29 01:03:59;;;;;;;3.45;2.38;;;;;;;;;;5047331;28;20045;-80
2021/01/29 01:06:44;;;;;;;7.45;2.65;;;;;;;;;;5040771;28;20021;-80
2021/01/29 01:09:29;;;;;;;2.20;1.27;;;;;;;;;;5047763;28;20018;-80
2021/01/29 01:12:14;;;;;;;3.42;1.45;;;;;;;;;;5047469;28;20032;-81
2021/01/29 01:15:00;;;;;;;3.72;1.70;;;;;;;;;;5044266;28;20017;-81
2021/01/29 01:17:45;;;;;;;2.05;1.30;;;;;;;;;;5037555;28;20474;-80
2021/01/29 01:20:31;;;;;;;2.67;1.25;;;;;;;;;;5043399;28;20613;-80
2021/01/29 01:23:16;;;;;;;3.80;1.15;;;;;;;;;;5047654;28;20367;-80
2021/01/29 01:26:01;;;;;;;1.40;1.05;;;;;;;;;;5051263;28;20025;-80
2021/01/29 01:28:46;;;;;;;2.28;1.20;;;;;;;;;;5042547;28;20017;-79
2021/01/29 01:31:31;;;;;;;2.13;1.55;;;;;;;;;;5044886;28;20562;-79
2021/01/29 01:34:17;;;;;;;6.10;3.17;;;;;;;;;;5041715;28;20082;-79
2021/01/29 01:37:02;;;;;;;7.50;1.50;;;;;;;;;;5043513;28;20021;-80
2021/01/29 01:39:48;;;;;;;3.60;0.98;;;;;;;;;;5051577;28;20505;-80
2021/01/29 01:42:33;;;;;;;2.88;1.27;;;;;;;;;;5045504;28;20032;-80
2021/01/29 01:45:41;;;;;;;3.00;1.60;;;;;;;;;;5045077;28;20119;-79
2021/01/29 01:48:32;;;;;;;1.13;0.90;;;;;;;;;;5017075;28;20060;-80
2021/01/29 01:51:21;;;;;;;2.40;1.08;;;;;;;;;;5047061;28;20060;-80
2021/01/29 01:54:25;;;;;;;6.10;1.47;;;;;;;;;;5040667;28;20049;-80
2021/01/29 01:57:13;;;;;;;4.97;2.50;;;;;;;;;;5046662;28;20067;-81
2021/01/29 02:00:13;;;;;;;2.67;1.45;;;;;;;;;;5031612;28;20025;-82
2021/01/29 02:03:03;;;;;;;2.58;1.70;;;;;;;;;;5047611;28;21591;-81
2021/01/29 02:05:49;;;;;;;1.20;1.10;;;;;;;;;;5047007;28;20167;-80
2021/01/29 02:08:36;;;;;;;3.80;1.20;;;;;;;;;;5044365;28;20060;-80
2021/01/29 02:11:21;;;;;;;5.15;1.83;;;;;;;;;;5061288;28;20112;-81
2021/01/29 02:14:07;;;;;;;3.25;1.95;;;;;;;;;;5044322;28;20033;-81
2021/01/29 02:16:59;;;;;;;3.42;1.75;;;;;;;;;;5045713;28;20057;-80
2021/01/29 02:20:03;;;;;;;3.67;1.52;;;;;;;;;;5058191;28;20025;-81
2021/01/29 02:22:58;;;;;;;3.92;1.45;;;;;;;;;;5036717;28;20801;-80
2021/01/29 02:26:02;;;;;;;2.97;1.60;;;;;;;;;;5028498;28;20037;-80
2021/01/29 02:28:53;;;;;;;4.35;1.70;;;;;;;;;;5045003;28;20033;-80
2021/01/29 02:31:57;;;;;;;2.65;1.80;;;;;;;;;;5056831;28;20608;-80
2021/01/29 02:35:01;;;;;;;2.05;1.30;;;;;;;;;;5041354;28;20033;-80
2021/01/29 02:37:46;;;;;;;2.15;1.60;;;;;;;;;;5048317;28;20048;-81
2021/01/29 02:40:35;;;;;;;3.75;1.13;;;;;;;;;;5044414;28;20025;-80
2021/01/29 02:43:26;;;;;;;2.63;1.33;;;;;;;;;;5044068;28;20017;-81
2021/01/29 02:46:29;;;;;;;3.33;1.60;;;;;;;;;;5041423;28;20028;-80
2021/01/29 02:49:19;;;;;;;3.15;1.42;;;;;;;;;;5045154;28;20488;-79
2021/01/29 02:52:15;;;;;;;3.45;1.10;;;;;;;;;;5044940;28;20530;-80
2021/01/29 02:55:06;;;;;;;4.85;1.73;;;;;;;;;;5050910;28;20127;-79
2021/01/29 02:57:59;;;;;;;4.30;1.25;;;;;;;;;;5047810;28;20025;-80
2021/01/29 03:00:52;;;;;;;2.60;0.90;;;;;;;;;;5045608;28;20032;-80
2021/01/29 03:03:49;;;;;;;2.10;1.05;;;;;;;;;;5052331;28;20031;-79
2021/01/29 03:06:42;;;;;;;3.45;1.00;;;;;;;;;;5045295;28;20032;-79
2021/01/29 03:09:30;;;;;;;1.70;1.27;;;;;;;;;;5053872;28;20028;-79
2021/01/29 03:12:23;;;;;;;0.88;0.80;;;;;;;;;;5049542;28;20029;-79
2021/01/29 03:15:17;;;;;;;2.75;1.00;;;;;;;;;;5051937;28;20174;-80
2021/01/29 03:18:19;;;;;;;1.17;1.05;;;;;;;;;;5050912;28;20032;-80
2021/01/29 03:21:21;;;;;;;1.45;1.00;;;;;;;;;;5055162;28;20056;-80
2021/01/29 03:24:27;;;;;;;1.85;1.30;;;;;;;;;;5046568;28;20013;-80
2021/01/29 03:27:19;;;;;;;3.05;1.23;;;;;;;;;;5047927;28;20025;-80
2021/01/29 03:30:07;;;;;;;3.58;1.10;;;;;;;;;;5051468;28;20068;-80
2021/01/29 03:32:55;;;;;;;2.13;0.77;;;;;;;;;;5048378;28;20024;-80
2021/01/29 03:35:53;;;;;;;3.10;0.80;;;;;;;;;;5056303;28;20021;-81
2021/01/29 03:38:47;;;;;;;2.80;1.00;;;;;;;;;;5054803;28;20055;-81
2021/01/29 03:41:35;;;;;;;1.90;0.93;;;;;;;;;;5044262;28;20021;-81
2021/01/29 03:44:23;;;;;;;3.50;1.90;;;;;;;;;;5055440;28;20391;-81
2021/01/29 03:47:11;;;;;;;3.72;1.30;;;;;;;;;;5062355;28;20375;-81
2021/01/29 03:50:15;;;;;;;1.20;0.73;;;;;;;;;;5049595;28;20055;-81
2021/01/29 03:53:12;;;;;;;1.20;0.95;;;;;;;;;;5052855;28;20499;-80
2021/01/29 03:56:21;;;;;;;1.58;0.80;;;;;;;;;;5056135;28;20111;-80
2021/01/29 03:59:16;;;;;;;2.17;0.90;;;;;;;;;;5052367;28;20639;-80
2021/01/29 04:02:22;;;;;;;2.15;0.93;;;;;;;;;;5060865;28;20117;-80
2021/01/29 04:05:10;;;;;;;1.17;0.70;;;;;;;;;;5057019;28;20032;-79
2021/01/29 04:08:01;;;;;;;3.15;1.42;;;;;;;;;;5055284;28;20082;-79
2021/01/29 04:10:47;;;;;;;1.30;0.85;;;;;;;;;;5054257;28;20032;-80
2021/01/29 04:13:36;;;;;;;1.70;0.90;;;;;;;;;;5046782;28;20593;-82
2021/01/29 04:16:23;;;;;;;2.50;0.93;;;;;;;;;;5052762;28;20060;-79
2021/01/29 04:19:13;;;;;;;1.30;0.63;;;;;;;;;;5051637;28;20033;-79
2021/01/29 04:22:01;;;;;;;1.63;0.90;;;;;;;;;;5055636;28;20031;-79
2021/01/29 04:25:09;;;;;;;1.13;0.63;;;;;;;;;;5052156;28;20090;-79
2021/01/29 04:28:15;;;;;;;1.77;0.82;;;;;;;;;;5055585;28;20028;-79
2021/01/29 04:31:02;;;;;;;2.10;0.95;;;;;;;;;;5055160;28;20025;-80
2021/01/29 04:33:51;;;;;;;1.42;0.90;;;;;;;;;;5055470;28;20020;-79
2021/01/29 04:36:37;;;;;;;2.38;0.77;;;;;;;;;;5050664;28;20107;-81
2021/01/29 04:39:31;;;;;;;1.85;0.65;;;;;;;;;;5048919;28;20033;-80
2021/01/29 04:42:28;;;;;;;1.65;0.90;;;;;;;;;;5055045;28;20024;-79
2021/01/29 04:45:26;;;;;;;2.90;0.90;;;;;;;;;;5056056;28;20039;-80
2021/01/29 04:48:27;;;;;;;1.50;0.77;;;;;;;;;;5051788;28;20030;-79
2021/01/29 04:51:31;;;;;;;3.40;1.08;;;;;;;;;;5051858;28;20077;-80
2021/01/29 04:54:35;;;;;;;0.75;0.75;;;;;;;;;;5047224;28;20456;-80
2021/01/29 04:57:42;;;;;;;0.75;0.63;;;;;;;;;;5031409;28;20033;-79
2021/01/29 05:00:34;;;;;;;2.75;0.85;;;;;;;;;;5044540;28;20037;-77
2021/01/29 05:03:28;;;;;;;1.02;0.90;;;;;;;;;;5046245;28;20112;-79
2021/01/29 05:06:38;;;;;;;0.55;0.55;;;;;;;;;;5038093;28;20021;-78
2021/01/29 05:09:44;;;;;;;1.42;0.75;;;;;;;;;;5042577;28;20055;-81
2021/01/29 05:12:45;;;;;;;1.27;0.90;;;;;;;;;;5043233;28;20423;-79
2021/01/29 05:15:39;;;;;;;0.75;0.70;;;;;;;;;;5045886;28;20104;-78
2021/01/29 05:18:41;;;;;;;4.70;1.10;;;;;;;;;;5045304;28;20083;-79
2021/01/29 05:21:33;;;;;;;1.00;0.90;;;;;;;;;;5043995;28;20471;-79
2021/01/29 05:24:37;;;;;;;3.53;0.93;;;;;;;;;;5048342;28;20132;-79
2021/01/29 05:27:22;;;;;;;3.22;0.70;;;;;;;;;;5047319;28;20482;-79
2021/01/29 05:30:17;;;;;;;0.75;0.50;;;;;;;;;;5047537;28;20027;-79
2021/01/29 05:33:19;;;;;;;0.75;0.50;;;;;;;;;;5044568;28;20255;-79
2021/01/29 05:36:24;;;;;;;0.85;0.40;;;;;;;;;;5049213;28;20017;-79
2021/01/29 05:39:28;;;;;;;0.50;0.50;;;;;;;;;;5045390;28;20048;-79
2021/01/29 05:42:26;;;;;;;2.13;0.82;;;;;;;;;;5046574;28;20025;-80
2021/01/29 05:45:23;;;;;;;1.45;0.52;;;;;;;;;;5046836;28;20094;-80
2021/01/29 05:48:27;;;;;;;1.95;1.00;;;;;;;;;;5040287;28;20093;-80
2021/01/29 05:51:18;;;;;;;1.17;0.73;;;;;;;;;;5048519;28;20040;-80
2021/01/29 05:54:07;;;;;;;1.20;0.60;;;;;;;;;;5042320;28;20072;-81
2021/01/29 05:56:58;;;;;;;1.80;0.90;;;;;;;;;;5050827;28;20246;-80
2021/01/29 05:59:59;;;;;;;1.58;0.73;;;;;;;;;;5046995;28;20112;-80
2021/01/29 06:02:44;;;;;;;1.38;0.70;;;;;;;;;;5042810;28;20063;-79
2021/01/29 06:05:41;;;;;;;1.55;0.73;;;;;;;;;;5046052;28;20021;-79
2021/01/29 06:08:45;;;;;;;2.22;0.80;;;;;;;;;;5045050;28;20091;-79
2021/01/29 06:11:43;;;;;;;1.75;0.60;;;;;;;;;;5043539;28;20025;-79
2021/01/29 06:14:36;;;;;;;0.77;0.63;;;;;;;;;;5039536;28;20018;-79
2021/01/29 06:17:37;;;;;;;1.35;0.85;;;;;;;;;;5046885;28;20029;-78
2021/01/29 06:20:29;;;;;;;1.48;0.68;;;;;;;;;;5050149;28;20029;-79
2021/01/29 06:23:33;;;;;;;3.45;0.85;;;;;;;;;;5041904;28;20059;-79
2021/01/29 06:26:18;;;;;;;1.73;0.75;;;;;;;;;;5045221;28;20088;-80
2021/01/29 06:29:22;;;;;;;13.23;0.90;;;;;;;;;;5042930;28;20027;-82
2021/01/29 06:32:07;;;;;;;1.48;0.60;;;;;;;;;;5044271;28;20064;-82
2021/01/29 06:35:12;;;;;;;0.77;0.70;;;;;;;;;;5040294;28;20461;-82
2021/01/29 06:38:16;;;;;;;0.55;0.55;;;;;;;;;;5047430;28;20395;-82
2021/01/29 06:41:10;;;;;;;2.17;0.70;;;;;;;;;;5044852;28;20025;-80
2021/01/29 06:44:05;;;;;;;0.80;0.60;;;;;;;;;;5061152;28;20029;-81
2021/01/29 06:46:50;;;;;;;1.33;0.75;;;;;;;;;;5052298;28;20021;-82
2021/01/29 06:49:54;;;;;;;1.65;0.55;;;;;;;;;;5047012;28;20040;-81
2021/01/29 06:52:58;;;;;;;1.17;0.50;;;;;;;;;;5046827;28;20040;-83
2021/01/29 06:55:58;;;;;;;0.88;0.63;;;;;;;;;;5054698;28;20057;-82
2021/01/29 06:58:47;;;;;;;1.50;0.57;;;;;;;;;;5047394;28;20085;-82
2021/01/29 07:01:42;;;;;;;1.20;0.47;;;;;;;;;;5047185;28;20122;-82
2021/01/29 07:04:42;;;;;;;2.92;0.70;;;;;;;;;;5051122;28;20041;-82
2021/01/29 07:07:46;;;;;;;0.68;0.60;;;;;;;;;;5052134;28;20107;-83
2021/01/29 07:10:49;;;;;;;0.70;0.63;;;;;;;;;;5049025;28;20028;-83
2021/01/29 07:13:53;;;;;;;2.50;0.50;;;;;;;;;;5053967;28;20085;-82
2021/01/29 07:16:52;;;;;;;0.40;0.40;;;;;;;;;;5049564;28;20517;-83
2021/01/29 07:19:40;;;;;;;0.60;0.60;;;;;;;;;;5048198;28;20029;-81
2021/01/29 07:22:32;;;;;;;0.73;0.73;;;;;;;;;;5060594;28;20037;-83
2021/01/29 07:25:27;;;;;;;7.95;4.60;;;;;;;;;;5047306;28;20041;-82
2021/01/29 07:28:24;;;;;;;4.45;1.38;;;;;;;;;;5041199;28;20386;-82
2021/01/29 07:31:28;;;;;;;1.52;0.93;;;;;;;;;;5049824;28;20020;-83
2021/01/29 07:34:21;;;;;;;0.60;0.50;;;;;;;;;;5051728;28;20025;-82
2021/01/29 07:37:26;;;;;;;0.50;0.50;;;;;;;;;;5052597;28;20025;-85
2021/01/29 07:40:29;;;;;;;2.03;0.75;;;;;;;;;;5054910;28;20349;-87
2021/01/29 07:43:20;;;;;;;0.40;0.40;;;;;;;;;;5055071;28;21109;-86
2021/01/29 07:46:24;;;;;;;1.60;0.60;;;;;;;;;;5058855;28;20021;-86
2021/01/29 07:49:10;;;;;;;1.25;0.70;;;;;;;;;;5057938;28;20032;-86
2021/01/29 07:51:55;;;;;;;0.93;0.52;;;;;;;;;;5051328;28;20074;-87
2021/01/29 07:54:41;;;;;;;2.92;0.60;;;;;;;;;;5056366;28;20083;-86
2021/01/29 07:57:37;;;;;;;0.45;0.45;;;;;;;;;;5049930;28;20036;-86
2021/01/29 08:00:26;;;;;;;1.75;0.55;;;;;;;;;;5049534;28;20024;-87
2021/01/29 08:03:30;;;;;;;0.88;0.68;;;;;;;;;;5051038;28;20152;-85
2021/01/29 08:06:42;;;;;;;1.98;0.68;;;;;;;;;;5054847;28;20086;-85
2021/01/29 08:09:39;;;;;;;1.95;1.10;;;;;;;;;;5045880;28;20259;-89
2021/01/29 08:12:25;;;;;;;0.70;0.60;;;;;;;;;;5045538;28;20029;-85
2021/01/29 08:15:25;;;;;;;1.45;0.77;;;;;;;;;;5046377;28;20406;-86
2021/01/29 08:18:25;;;;;;;0.43;0.43;;;;;;;;;;5063831;28;20033;-87
2021/01/29 08:21:22;;;;;;;0.80;0.70;;;;;;;;;;5050314;28;20025;-86
2021/01/29 08:24:17;;;;;;;4.30;0.90;;;;;;;;;;5045555;28;20052;-87
2021/01/29 08:27:17;;;;;;;1.35;0.70;;;;;;;;;;5046472;28;20025;-85
2021/01/29 08:30:10;;;;;;;1.48;0.98;;;;;;;;;;5049529;28;20064;-85
2021/01/29 08:32:59;;;;;;;2.67;0.88;;;;;;;;;;5047428;28;20025;-86
2021/01/29 08:35:57;;;;;;;0.98;0.50;;;;;;;;;;5046547;28;20021;-86
2021/01/29 08:38:58;;;;;;;0.50;0.50;;;;;;;;;;5046083;28;20478;-86
2021/01/29 08:41:49;;;;;;;0.52;0.50;;;;;;;;;;5046199;28;20028;-86
2021/01/29 08:44:35;;;;;;;2.40;0.60;;;;;;;;;;5039492;28;20355;-85
2021/01/29 08:47:48;;;;;;;0.98;0.50;;;;;;;;;;5038831;28;20025;-85
2021/01/29 08:50:43;;;;;;;0.60;0.60;;;;;;;;;;5046628;28;20035;-85
2021/01/29 08:53:47;;;;;;;2.47;0.70;;;;;;;;;;5051553;28;20044;-86
2021/01/29 08:56:36;;;;;;;2.08;1.20;;;;;;;;;;5048241;28;20032;-84
2021/01/29 08:59:23;;;;;;;6.90;4.50;;;;;;;;;;5041494;28;20021;-86
2021/01/29 09:02:27;;;;;;;1.20;0.60;;;;;;;;;;5047474;28;20512;-84
2021/01/29 09:05:19;;;;;;;2.88;0.70;;;;;;;;;;5044477;28;20053;-84
2021/01/29 09:08:06;;;;;;;1.85;0.70;;;;;;;;;;5044952;28;20404;-84
2021/01/29 09:11:04;;;;;;;1.50;0.60;;;;;;;;;;5042351;28;20025;-85
2021/01/29 09:13:57;;;;;;;1.48;0.57;;;;;;;;;;5053272;28;20036;-84
2021/01/29 09:16:43;;;;;;;1.75;0.65;;;;;;;;;;5045644;28;20040;-85
2021/01/29 09:19:29;;;;;;;1.00;0.80;;;;;;;;;;5043065;28;20479;-85
2021/01/29 09:22:28;;;;;;;2.63;0.70;;;;;;;;;;5046092;28;20032;-84
2021/01/29 09:25:23;;;;;;;3.67;1.25;;;;;;;;;;5046685;28;20025;-85
2021/01/29 09:28:11;;;;;;;0.80;0.68;;;;;;;;;;5046279;28;20534;-84
2021/01/29 09:31:00;;;;;;;1.90;0.70;;;;;;;;;;5050081;28;20054;-87
2021/01/29 09:33:54;;;;;;;2.08;0.70;;;;;;;;;;5056491;28;20040;-84
2021/01/29 09:36:47;;;;;;;1.08;0.70;;;;;;;;;;5044895;28;20024;-86
2021/01/29 09:40:02;;;;;;;1.75;0.82;;;;;;;;;;5042843;28;20175;-84
2021/01/29 09:42:55;;;;;;;6.07;1.15;;;;;;;;;;5038563;28;20047;-84
2021/01/29 09:45:43;;;;;;;1.33;0.85;;;;;;;;;;5054111;28;20017;-83
2021/01/29 09:48:30;;;;;;;2.90;1.00;;;;;;;;;;5050396;28;20028;-84
2021/01/29 09:51:26;;;;;;;2.85;1.00;;;;;;;;;;5046600;28;20562;-84
2021/01/29 09:54:18;;;;;;;4.93;1.05;;;;;;;;;;5051491;28;20450;-84
2021/01/29 09:57:12;;;;;;;6.40;1.25;;;;;;;;;;5045219;28;20037;-83
2021/01/29 10:00:18;;;;;;;5.78;1.38;;;;;;;;;;5047196;28;20025;-84
2021/01/29 10:03:12;;;;;;;5.05;1.30;;;;;;;;;;5039684;28;20094;-83
2021/01/29 10:06:06;;;;;;;8.20;1.13;;;;;;;;;;5046083;28;20033;-84
2021/01/29 10:08:54;;;;;;;3.63;1.13;;;;;;;;;;5054022;28;20116;-84
2021/01/29 10:11:42;;;;;;;4.55;1.20;;;;;;;;;;5044589;28;20109;-85
2021/01/29 10:14:42;;;;;;;4.25;1.60;;;;;;;;;;5044081;28;20071;-85
2021/01/29 10:17:28;;;;;;;3.65;1.35;;;;;;;;;;5044893;28;20527;-86
2021/01/29 10:20:21;;;;;;;5.10;1.67;;;;;;;;;;5044131;28;20033;-83
2021/01/29 10:23:14;;;;;;;8.07;1.80;;;;;;;;;;5043859;28;20109;-83
2021/01/29 10:26:02;;;;;;;7.70;2.08;;;;;;;;;;5047053;28;20020;-84
2021/01/29 10:28:51;;;;;;;5.55;1.33;;;;;;;;;;5043125;28;20391;-86
2021/01/29 10:31:45;;;;;;;6.60;2.38;;;;;;;;;;5052614;28;20028;-86
2021/01/29 10:34:54;;;;;;;1999.90;999.90;;;;;;;;;;5033372;28;20032;-86
2021/01/29 10:37:44;;;;;;;8.52;6.13;;;;;;;;;;5046007;28;20033;-85
2021/01/29 10:40:39;;;;;;;1999.90;999.90;;;;;;;;;;5050371;28;20017;-86
2021/01/29 10:43:28;;;;;;;6.30;2.85;;;;;;;;;;5047983;28;20051;-87
2021/01/29 10:46:43;;;;;;;8.32;7.50;;;;;;;;;;5036106;28;20021;-88
2021/01/29 10:49:37;;;;;;;8.82;5.50;;;;;;;;;;5047628;28;20111;-86
2021/01/29 10:52:23;;;;;;;3.67;2.20;;;;;;;;;;5040009;28;20287;-87
2021/01/29 10:55:16;;;;;;;3.22;1.67;;;;;;;;;;5053467;28;20033;-85
2021/01/29 10:58:20;;;;;;;4.57;4.18;;;;;;;;;;5053547;28;20104;-85
2021/01/29 11:01:10;;;;;;;5.60;1.65;;;;;;;;;;5048638;28;20043;-85
2021/01/29 11:04:04;;;;;;;5.25;2.50;;;;;;;;;;5053010;28;20012;-87
2021/01/29 11:06:53;;;;;;;4.00;1.88;;;;;;;;;;5056142;28;20020;-88
2021/01/29 11:09:41;;;;;;;9.65;3.63;;;;;;;;;;5071833;28;20024;-88
2021/01/29 11:12:27;;;;;;;3.63;1.52;;;;;;;;;;5048302;28;20028;-88
2021/01/29 11:15:30;;;;;;;4.22;2.00;;;;;;;;;;5054027;28;20121;-87
2021/01/29 11:18:37;;;;;;;7.38;2.83;;;;;;;;;;5060412;28;20028;-87
2021/01/29 11:21:26;;;;;;;6.88;1.90;;;;;;;;;;5052780;28;20043;-88
2021/01/29 11:24:22;;;;;;;7.40;1.70;;;;;;;;;;5055339;28;20027;-87
2021/01/29 11:27:17;;;;;;;4.60;1.75;;;;;;;;;;5062696;28;20017;-87
2021/01/29 11:30:06;;;;;;;7.38;2.92;;;;;;;;;;5051097;28;20024;-80
2021/01/29 11:32:53;;;;;;;10.10;5.60;;;;;;;;;;5054507;28;20021;-80
2021/01/29 11:35:39;;;;;;;8.10;2.00;;;;;;;;;;5051712;28;20074;-80
2021/01/29 11:38:44;;;;;;;5.60;2.17;;;;;;;;;;5041459;28;20016;-81
2021/01/29 11:41:35;;;;;;;8.65;4.18;;;;;;;;;;5053193;28;20023;-80
2021/01/29 11:44:33;;;;;;;7.50;2.25;;;;;;;;;;5054927;28;20025;-83
2021/01/29 11:47:27;;;;;;;2.72;1.48;;;;;;;;;;5069875;28;20032;-80
2021/01/29 11:50:16;;;;;;;9.68;2.40;;;;;;;;;;5050546;28;20105;-81
2021/01/29 11:53:04;;;;;;;28.65;27.23;;;;;;;;;;5047688;28;20045;-81
2021/01/29 11:55:52;;;;;;;1500.97;750.92;;;;;;;;;;5047454;28;20067;-82
2021/01/29 11:58:54;;;;;;;540.97;289.08;;;;;;;;;;5046289;28;20030;-80
2021/01/29 12:01:47;;;;;;;21.55;19.92;;;;;;;;;;5045202;28;20060;-80
2021/01/29 12:04:50;;;;;;;12.35;8.25;;;;;;;;;;5045702;28;20125;-80
2021/01/29 12:07:40;;;;;;;6.10;1.60;;;;;;;;;;5044540;28;20066;-81
2021/01/29 12:10:36;;;;;;;8.00;1.90;;;;;;;;;;5034152;28;20017;-79
2021/01/29 12:13:50;;;;;;;5.00;1.75;;;;;;;;;;5043576;28;20021;-81
2021/01/29 12:16:35;;;;;;;7.85;1.70;;;;;;;;;;5041677;28;20463;-78
2021/01/29 12:19:41;;;;;;;5.22;1.90;;;;;;;;;;5048596;28;20029;-79
2021/01/29 12:22:32;;;;;;;7.97;1.88;;;;;;;;;;5041572;28;20763;-80
2021/01/29 12:25:36;;;;;;;6.05;1.80;;;;;;;;;;5032891;28;20052;-80
2021/01/29 12:28:40;;;;;;;5.85;1.50;;;;;;;;;;5043929;28;20013;-78
2021/01/29 12:31:32;;;;;;;7.43;1.65;;;;;;;;;;5047205;28;20033;-80
2021/01/29 12:34:36;;;;;;;7.68;1.60;;;;;;;;;;5034790;28;20043;-80
2021/01/29 12:37:23;;;;;;;4.85;1.80;;;;;;;;;;5044205;28;20064;-80
2021/01/29 12:40:25;;;;;;;7.95;1.55;;;;;;;;;;5046685;28;20036;-80
2021/01/29 12:43:29;;;;;;;5.22;1.45;;;;;;;;;;5039381;28;20047;-79
2021/01/29 12:46:21;;;;;;;5.97;1.65;;;;;;;;;;5062879;28;20506;-79
2021/01/29 12:49:09;;;;;;;7.53;1.55;;;;;;;;;;5043034;28;20052;-83
2021/01/29 12:51:56;;;;;;;5.20;1.98;;;;;;;;;;5046381;28;20035;-83
2021/01/29 12:54:57;;;;;;;7.43;1.92;;;;;;;;;;5042934;28;20525;-83
2021/01/29 12:57:42;;;;;;;6.13;2.15;;;;;;;;;;5045340;28;20474;-84
2021/01/29 13:00:33;;;;;;;3.72;1.27;;;;;;;;;;5041381;28;20115;-85
2021/01/29 13:03:30;;;;;;;7.82;1.55;;;;;;;;;;5049872;28;20017;-82
2021/01/29 13:06:51;;;;;;;6.82;1.30;;;;;;;;;;5046162;28;20025;-83
2021/01/29 13:09:44;;;;;;;4.07;1.63;;;;;;;;;;4989042;28;20030;-84
2021/01/29 13:12:32;;;;;;;2.10;1.17;;;;;;;;;;5050644;28;20025;-83
2021/01/29 13:15:22;;;;;;;4.03;1.30;;;;;;;;;;5042707;28;20364;-82
2021/01/29 13:18:09;;;;;;;;;;;;;;;;;;5050573;28;20028;-81
2021/01/29 13:21:03;;;;;;;2.97;1.23;;;;;;;;;;5040449;28;19917;-80
2021/01/29 13:23:49;;;;;;;1.50;0.80;;;;;;;;;;5045027;28;20556;-79
2021/01/29 13:26:34;;;;;;;3.70;0.80;;;;;;;;;;5041643;28;21330;-81
2021/01/29 13:29:25;;;;;;;1.25;0.70;;;;;;;;;;5047341;28;20043;-80
2021/01/29 13:32:35;;;;;;;3.80;2.22;;;;;;;;;;5043448;28;20138;-78
2021/01/29 13:35:26;;;;;;;3.05;0.77;;;;;;;;;;5040713;28;20073;-77
2021/01/29 13:38:30;;;;;;;3.17;1.48;;;;;;;;;;5049783;28;20029;-82
2021/01/29 13:41:17;;;;;;;5.32;1.23;;;;;;;;;;5038547;28;20025;-82
2021/01/29 13:44:18;;;;;;;1.88;0.80;;;;;;;;;;5046083;28;20032;-80
2021/01/29 13:47:06;;;;;;;1.65;0.88;;;;;;;;;;5044180;28;20127;-79
2021/01/29 13:49:51;;;;;;;5.75;0.93;;;;;;;;;;5045837;28;20013;-79
2021/01/29 13:52:36;;;;;;;2.22;0.93;;;;;;;;;;5041157;28;20610;-82
2021/01/29 13:55:41;;;;;;;2.67;0.80;;;;;;;;;;5048734;28;20035;-82
2021/01/29 13:58:49;;;;;;;2.42;0.70;;;;;;;;;;5052855;28;20064;-78
2021/01/29 14:01:38;;;;;;;2.38;1.00;;;;;;;;;;5043667;28;20486;-78
2021/01/29 14:04:27;;;;;;;2.13;0.90;;;;;;;;;;5059030;28;20392;-79
2021/01/29 14:07:13;;;;;;;2.67;1.47;;;;;;;;;;5043033;28;20070;-78
2021/01/29 14:09:58;;;;;;;3.70;1.20;;;;;;;;;;5044296;28;20017;-78
2021/01/29 14:12:58;;;;;;;3.20;1.33;;;;;;;;;;5038677;28;20371;-78
2021/01/29 14:15:43;;;;;;;4.75;1.20;;;;;;;;;;5043764;28;20021;-78
2021/01/29 14:18:37;;;;;;;5.47;1.42;;;;;;;;;;5043168;28;20143;-78
2021/01/29 14:21:41;;;;;;;5.10;1.20;;;;;;;;;;5044585;28;20167;-77
2021/01/29 14:24:38;;;;;;;7.03;2.65;;;;;;;;;;5040646;28;20025;-80
2021/01/29 14:27:29;;;;;;;5.22;1.48;;;;;;;;;;5041158;28;20103;-79
2021/01/29 14:30:26;;;;;;;3.88;1.05;;;;;;;;;;5043007;28;20025;-79
2021/01/29 14:33:14;;;;;;;3.20;1.35;;;;;;;;;;5040527;28;20112;-78
2021/01/29 14:36:04;;;;;;;2.22;1.15;;;;;;;;;;5045655;28;20055;-79
2021/01/29 14:39:09;;;;;;;6.05;1.35;;;;;;;;;;5040427;28;20104;-79
2021/01/29 14:42:09;;;;;;;1.80;0.88;;;;;;;;;;5026829;28;20103;-79
2021/01/29 14:44:57;;;;;;;4.60;1.17;;;;;;;;;;5044763;28;20021;-79
2021/01/29 14:47:48;;;;;;;4.68;1.17;;;;;;;;;;5043869;28;20021;-79
2021/01/29 14:50:43;;;;;;;3.90;1.02;;;;;;;;;;5043126;28;20062;-78
2021/01/29 14:53:33;;;;;;;3.42;1.10;;;;;;;;;;5038320;28;20651;-79
2021/01/29 14:56:33;;;;;;;1.25;0.80;;;;;;;;;;5046052;28;20025;-78
2021/01/29 14:59:19;;;;;;;4.80;1.88;;;;;;;;;;5041565;28;20033;-79
2021/01/29 15:02:13;;;;;;;5.38;1.02;;;;;;;;;;5042360;28;20025;-79
2021/01/29 15:05:00;;;;;;;3.25;1.00;;;;;;;;;;5042033;28;20018;-78
2021/01/29 15:07:47;;;;;;;3.10;1.20;;;;;;;;;;5044984;28;20463;-78
2021/01/29 15:10:34;;;;;;;2.47;0.77;;;;;;;;;;5046631;28;20041;-79
2021/01/29 15:13:35;;;;;;;2.72;1.13;;;;;;;;;;5045942;28;20092;-78
2021/01/29 15:16:39;;;;;;;4.70;1.25;;;;;;;;;;5045355;28;20434;-78
2021/01/29 15:19:26;;;;;;;2.88;1.00;;;;;;;;;;5057015;28;20519;-78
2021/01/29 15:22:11;;;;;;;4.85;1.50;;;;;;;;;;5044206;28;20028;-79
2021/01/29 15:25:13;;;;;;;5.38;2.78;;;;;;;;;;5046971;28;20017;-78
2021/01/29 15:28:19;;;;;;;18.48;3.60;;;;;;;;;;5044294;28;20060;-79
2021/01/29 15:31:11;;;;;;;8.60;4.13;;;;;;;;;;5044557;28;20068;-79
2021/01/29 15:33:59;;;;;;;6.57;2.50;;;;;;;;;;5046009;28;20032;-79
2021/01/29 15:36:50;;;;;;;4.50;1.52;;;;;;;;;;5045732;28;20443;-79
2021/01/29 15:39:36;;;;;;;4.80;1.20;;;;;;;;;;5048512;28;20021;-78
2021/01/29 15:42:37;;;;;;;3.08;0.98;;;;;;;;;;5040215;28;20025;-78
2021/01/29 15:45:29;;;;;;;1.38;1.02;;;;;;;;;;5046277;28;20480;-78
2021/01/29 15:48:16;;;;;;;3.50;1.38;;;;;;;;;;5046833;28;20017;-79
2021/01/29 15:51:07;;;;;;;5.25;1.90;;;;;;;;;;5046074;28;20056;-79
2021/01/29 15:53:52;;;;;;;2.25;0.90;;;;;;;;;;5042966;28;20056;-78
2021/01/29 15:56:42;;;;;;;3.13;1.05;;;;;;;;;;5046748;28;20060;-78
2021/01/29 15:59:34;;;;;;;4.28;1.48;;;;;;;;;;5051142;28;20029;-78
2021/01/29 16:02:21;;;;;;;3.38;1.30;;;;;;;;;;5044713;28;20025;-78
2021/01/29 16:05:25;;;;;;;5.05;1.38;;;;;;;;;;5042493;28;20020;-78
2021/01/29 16:08:32;;;;;;;5.25;1.20;;;;;;;;;;5047413;28;20048;-78
2021/01/29 16:11:24;;;;;;;3.08;1.05;;;;;;;;;;5042414;28;20039;-78
2021/01/29 16:14:13;;;;;;;3.00;1.08;;;;;;;;;;5047436;28;20059;-78
2021/01/29 16:17:06;;;;;;;5.70;1.30;;;;;;;;;;5044347;28;20037;-78
2021/01/29 16:20:03;;;;;;;3.70;1.00;;;;;;;;;;5047124;28;20082;-78
2021/01/29 16:22:48;;;;;;;3.65;0.93;;;;;;;;;;5045588;28;20029;-78
2021/01/29 16:25:34;;;;;;;1.10;0.50;;;;;;;;;;5062239;28;20079;-78
2021/01/29 16:28:19;;;;;;;1.90;0.85;;;;;;;;;;5045732;28;20032;-79
2021/01/29 16:31:19;;;;;;;5.10;1.98;;;;;;;;;;5045595;28;20051;-78
2021/01/29 16:34:06;;;;;;;1.98;1.00;;;;;;;;;;5038927;28;20462;-78
2021/01/29 16:36:52;;;;;;;3.25;0.90;;;;;;;;;;5046349;28;20535;-79
2021/01/29 16:39:39;;;;;;;0.80;0.60;;;;;;;;;;5043415;28;20021;-78
2021/01/29 16:42:26;;;;;;;3.15;1.13;;;;;;;;;;5037945;28;20091;-78
2021/01/29 16:45:30;;;;;;;4.20;1.00;;;;;;;;;;5042946;28;20473;-78
2021/01/29 16:48:22;;;;;;;5.95;1.20;;;;;;;;;;5043777;28;20044;-78
2021/01/29 16:51:16;;;;;;;4.40;1.50;;;;;;;;;;5039059;28;20078;-78
2021/01/29 16:54:04;;;;;;;2.35;1.02;;;;;;;;;;5044936;28;20550;-77
2021/01/29 16:56:49;;;;;;;3.92;1.20;;;;;;;;;;5059155;28;20025;-78
2021/01/29 16:59:35;;;;;;;5.93;2.15;;;;;;;;;;5045321;28;20021;-78
2021/01/29 17:02:22;;;;;;;6.72;1.40;;;;;;;;;;5041082;28;20028;-79
2021/01/29 17:05:08;;;;;;;2.08;1.17;;;;;;;;;;5044800;28;20032;-78
2021/01/29 17:07:54;;;;;;;5.78;1.45;;;;;;;;;;5044786;28;20046;-78
2021/01/29 17:10:41;;;;;;;4.93;1.75;;;;;;;;;;5047677;28;20083;-78
2021/01/29 17:13:26;;;;;;;20.42;10.93;;;;;;;;;;5039598;28;20020;-78
2021/01/29 17:16:14;;;;;;;13.18;5.75;;;;;;;;;;5044258;28;20040;-78
2021/01/29 17:19:00;;;;;;;6.65;2.63;;;;;;;;;;5040778;28;20028;-78